createdAt,value
2022-09-13T00:01:21.982Z,96252.31
2022-09-13T00:03:50.365Z,96249.00
2022-09-13T00:06:21.484Z,96249.59
2022-09-13T00:08:50.813Z,96239.78
2022-09-13T00:11:21.273Z,96242.53
2022-09-13T00:13:49.623Z,96243.88
2022-09-13T00:16:21.375Z,96239.25
2022-09-13T00:18:52.120Z,96234.06
2022-09-13T00:21:22.423Z,96221.81
2022-09-13T00:23:53.937Z,96227.78
2022-09-13T00:26:23.887Z,96223.72
2022-09-13T00:28:54.382Z,96221.56
2022-09-13T00:31:24.912Z,96217.44
2022-09-13T00:33:54.975Z,96210.66
2022-09-13T00:36:23.315Z,96204.34
2022-09-13T00:38:51.569Z,96202.72
2022-09-13T00:41:21.921Z,96195.63
2022-09-13T00:43:53.786Z,96197.28
2022-09-13T00:46:29.251Z,96190.44
2022-09-13T00:49:02.826Z,96198.06
2022-09-13T00:51:32.952Z,96187.44
2022-09-13T00:54:03.324Z,96184.75
2022-09-13T00:56:35.490Z,96186.66
2022-09-13T00:59:08.741Z,96195.94
2022-09-13T01:01:43.719Z,96187.47
2022-09-13T01:04:13.958Z,96171.38
2022-09-13T01:06:43.671Z,96178.50
2022-09-13T01:09:13.581Z,96181.50
2022-09-13T01:11:49.418Z,96178.22
2022-09-13T01:14:20.371Z,96169.25
2022-09-13T01:16:49.395Z,96174.13
2022-09-13T01:19:19.659Z,96179.59
2022-09-13T01:22:32.635Z,96169.50
2022-09-13T01:25:28.647Z,96162.41
2022-09-13T01:28:21.782Z,96158.59
2022-09-13T01:31:00.012Z,96160.50
2022-09-13T01:33:43.938Z,96160.25
2022-09-13T01:36:38.920Z,96154.25
2022-09-13T01:39:12.210Z,96152.88
2022-09-13T01:42:03.226Z,96157.50
2022-09-13T01:44:46.149Z,96149.31
2022-09-13T01:47:26.325Z,96150.69
2022-09-13T01:50:08.813Z,96155.31
2022-09-13T01:52:45.501Z,96152.06
2022-09-13T01:55:23.991Z,96157.78
2022-09-13T01:57:58.372Z,96151.53
2022-09-13T02:00:29.225Z,96135.16
2022-09-13T02:03:06.593Z,96158.06
2022-09-13T02:05:42.091Z,96151.78
2022-09-13T02:08:14.851Z,96152.06
2022-09-13T02:10:48.201Z,96146.59
2022-09-13T02:13:21.418Z,96150.97
2022-09-13T02:15:55.951Z,96146.88
2022-09-13T02:18:29.675Z,96152.34
2022-09-13T02:21:02.563Z,96147.69
2022-09-13T02:23:38.762Z,96153.16
2022-09-13T02:26:08.919Z,96150.97
2022-09-13T02:28:42.525Z,96153.69
2022-09-13T02:31:15.077Z,96154.78
2022-09-13T02:33:50.171Z,96173.84
2022-09-13T02:36:23.928Z,96164.56
2022-09-13T02:38:56.386Z,96170.00
2022-09-13T02:41:31.828Z,96157.50
2022-09-13T02:44:06.605Z,96158.53
2022-09-13T02:46:53.419Z,96168.59
2022-09-13T02:49:31.662Z,96165.31
2022-09-13T02:52:11.203Z,96170.28
2022-09-13T02:54:44.827Z,96170.56
2022-09-13T02:57:19.547Z,96169.19
2022-09-13T02:59:49.307Z,96157.97
2022-09-13T03:02:23.059Z,96155.25
2022-09-13T03:04:52.998Z,96156.88
2022-09-13T03:07:21.820Z,96159.03
2022-09-13T03:09:54.325Z,96151.44
2022-09-13T03:12:40.919Z,96145.16
2022-09-13T03:15:21.011Z,96153.31
2022-09-13T03:18:01.928Z,96153.31
2022-09-13T03:20:42.691Z,96148.97
2022-09-13T03:23:31.465Z,96147.59
2022-09-13T03:26:33.521Z,96140.22
2022-09-13T03:29:13.736Z,96139.38
2022-09-13T03:31:52.222Z,96141.31
2022-09-13T03:34:32.086Z,96148.94
2022-09-13T03:37:08.703Z,96154.13
2022-09-13T03:39:43.560Z,96152.47
2022-09-13T03:42:17.790Z,96148.94
2022-09-13T03:44:50.968Z,96145.34
2022-09-13T03:47:21.002Z,96127.63
2022-09-13T03:49:53.023Z,96115.94
2022-09-13T03:52:23.200Z,96097.44
2022-09-13T03:54:53.218Z,96100.94
2022-09-13T03:57:23.262Z,96088.13
2022-09-13T03:59:53.818Z,96109.09
2022-09-13T04:02:23.991Z,96103.38
2022-09-13T04:04:52.786Z,96099.53
2022-09-13T04:07:23.904Z,96105.75
2022-09-13T04:09:52.971Z,96099.72
2022-09-13T04:12:21.579Z,96124.19
2022-09-13T04:14:49.873Z,96124.22
2022-09-13T04:17:18.765Z,96127.22
2022-09-13T04:19:47.572Z,96135.69
2022-09-13T04:22:17.293Z,96135.16
2022-09-13T04:24:46.995Z,96137.31
2022-09-13T04:27:16.016Z,96140.59
2022-09-13T04:29:44.281Z,96138.13
2022-09-13T04:32:13.381Z,96135.41
2022-09-13T04:34:41.659Z,96138.69
2022-09-13T04:37:10.762Z,96137.06
2022-09-13T04:39:39.442Z,96146.03
2022-09-13T04:42:11.263Z,96154.75
2022-09-13T04:44:40.145Z,96141.69
2022-09-13T04:47:09.122Z,96147.34
2022-09-13T04:49:37.754Z,96142.72
2022-09-13T04:52:07.351Z,96151.97
2022-09-13T04:54:35.620Z,96151.44
2022-09-13T04:57:04.608Z,96160.44
2022-09-13T04:59:35.024Z,96158.00
2022-09-13T05:02:03.758Z,96162.88
2022-09-13T05:04:32.085Z,96151.19
2022-09-13T05:07:00.463Z,96162.59
2022-09-13T05:09:29.578Z,96164.25
2022-09-13T05:11:58.383Z,96154.44
2022-09-13T05:14:27.135Z,96162.03
2022-09-13T05:16:56.797Z,96159.34
2022-09-13T05:19:25.539Z,96158.81
2022-09-13T05:21:53.821Z,96158.22
2022-09-13T05:24:22.106Z,96155.50
2022-09-13T05:26:50.767Z,96130.91
2022-09-13T05:29:19.049Z,96174.53
2022-09-13T05:31:48.082Z,96163.94
2022-09-13T05:34:19.540Z,96167.78
2022-09-13T05:36:54.265Z,96160.44
2022-09-13T05:40:00.412Z,96164.53
2022-09-13T05:42:12.255Z,96161.53
2022-09-13T05:44:40.781Z,96151.19
2022-09-13T05:47:09.588Z,96159.63
2022-09-13T05:49:56.718Z,96158.28
2022-09-13T05:52:28.230Z,96165.66
2022-09-13T05:54:57.230Z,96166.72
2022-09-13T05:57:25.501Z,96166.16
2022-09-13T05:59:54.163Z,96159.63
2022-09-13T06:02:22.926Z,96146.81
2022-09-13T06:04:52.979Z,96153.91
2022-09-13T06:07:21.299Z,96143.06
2022-09-13T06:09:49.639Z,96151.50
2022-09-13T06:12:18.729Z,96145.28
2022-09-13T06:14:47.563Z,96150.19
2022-09-13T06:17:16.481Z,96154.03
2022-09-13T06:19:45.079Z,96150.81
2022-09-13T06:22:14.772Z,96148.06
2022-09-13T06:24:43.953Z,96139.06
2022-09-13T06:27:12.407Z,96143.72
2022-09-13T06:29:40.717Z,96132.88
2022-09-13T06:32:09.051Z,96142.66
2022-09-13T06:34:37.733Z,96147.34
2022-09-13T06:37:06.130Z,96156.88
2022-09-13T06:39:35.886Z,96164.50
2022-09-13T06:42:04.494Z,96166.16
2022-09-13T06:44:41.092Z,96165.34
2022-09-13T06:47:09.816Z,96163.75
2022-09-13T06:49:38.275Z,96154.78
2022-09-13T06:52:07.383Z,96149.88
2022-09-13T06:54:37.106Z,96148.25
2022-09-13T06:57:05.644Z,96147.69
2022-09-13T06:59:35.043Z,96150.44
2022-09-13T07:02:03.407Z,96153.41
2022-09-13T07:04:32.031Z,96158.34
2022-09-13T07:07:01.655Z,96153.97
2022-09-13T07:09:30.920Z,96163.50
2022-09-13T07:12:01.320Z,96162.94
2022-09-13T07:14:30.554Z,96165.94
2022-09-13T07:16:59.243Z,96162.38
2022-09-13T07:19:29.835Z,96177.38
2022-09-13T07:21:58.942Z,96172.16
2022-09-13T07:24:28.050Z,96171.34
2022-09-13T07:26:56.346Z,96178.16
2022-09-13T07:29:26.485Z,96175.13
2022-09-13T07:31:56.681Z,96174.53
2022-09-13T07:34:26.358Z,96178.00
2022-09-13T07:36:55.715Z,96174.69
2022-09-13T07:39:24.292Z,96175.69
2022-09-13T07:41:54.353Z,96172.91
2022-09-13T07:44:22.819Z,96174.97
2022-09-13T07:46:53.223Z,96183.09
2022-09-13T07:49:21.551Z,96180.78
2022-09-13T07:51:51.747Z,96179.56
2022-09-13T07:54:21.229Z,96179.91
2022-09-13T07:56:51.635Z,96184.59
2022-09-13T07:59:20.674Z,96178.19
2022-09-13T08:01:51.280Z,96174.75
2022-09-13T08:04:25.650Z,96178.41
2022-09-13T08:06:54.207Z,96175.25
2022-09-13T08:09:23.050Z,96174.31
2022-09-13T08:11:53.225Z,96185.13
2022-09-13T08:14:23.704Z,96183.16
2022-09-13T08:16:55.567Z,96172.34
2022-09-13T08:19:25.384Z,96176.63
2022-09-13T08:21:53.865Z,96170.56
2022-09-13T08:24:22.868Z,96176.50
2022-09-13T08:26:52.118Z,96167.09
2022-09-13T08:29:21.222Z,96178.50
2022-09-13T08:31:50.041Z,96179.78
2022-09-13T08:34:20.054Z,96178.50
2022-09-13T08:36:50.097Z,96181.16
2022-09-13T08:39:18.469Z,96177.06
2022-09-13T08:42:02.209Z,96164.78
2022-09-13T08:44:33.737Z,96173.38
2022-09-13T08:47:13.784Z,96181.56
2022-09-13T08:49:46.589Z,96176.81
2022-09-13T08:52:29.754Z,96159.84
2022-09-13T08:54:59.305Z,96163.56
2022-09-13T08:57:37.345Z,96165.69
2022-09-13T09:00:20.968Z,96163.34
2022-09-13T09:03:02.551Z,96165.28
2022-09-13T09:05:33.742Z,96166.44
2022-09-13T09:08:07.362Z,96152.63
2022-09-13T09:10:42.189Z,96157.81
2022-09-13T09:13:22.632Z,96168.47
2022-09-13T09:15:56.112Z,96161.84
2022-09-13T09:18:28.598Z,96172.91
2022-09-13T09:21:00.011Z,96171.97
2022-09-13T09:23:36.328Z,96164.38
2022-09-13T09:26:16.817Z,96162.63
2022-09-13T09:28:48.465Z,96148.31
2022-09-13T09:31:28.982Z,96149.97
2022-09-13T09:34:09.496Z,96144.28
2022-09-13T09:36:43.321Z,96151.34
2022-09-13T09:39:16.370Z,96152.50
2022-09-13T09:41:46.080Z,96149.84
2022-09-13T09:44:26.027Z,96153.50
2022-09-13T09:47:00.495Z,96155.28
2022-09-13T09:49:57.189Z,96149.72
2022-09-13T09:52:31.146Z,96143.91
2022-09-13T09:55:15.461Z,96135.00
2022-09-13T09:57:56.096Z,96133.38
2022-09-13T10:00:27.641Z,96143.00
2022-09-13T10:02:59.636Z,96132.00
2022-09-13T10:05:28.914Z,96134.09
2022-09-13T10:08:02.938Z,96121.56
2022-09-13T10:10:38.250Z,96124.09
2022-09-13T10:13:14.727Z,96122.00
2022-09-13T10:15:54.267Z,96122.78
2022-09-13T10:18:43.492Z,96117.41
2022-09-13T10:21:24.398Z,96115.13
2022-09-13T10:23:53.691Z,96120.38
2022-09-13T10:26:25.462Z,96116.59
2022-09-13T10:29:01.407Z,96105.69
2022-09-13T10:31:34.960Z,96111.31
2022-09-13T10:34:06.113Z,96107.88
2022-09-13T10:36:53.512Z,96112.13
2022-09-13T10:39:24.141Z,96117.91
2022-09-13T10:41:57.870Z,96114.47
2022-09-13T10:44:31.709Z,96114.63
2022-09-13T10:47:04.009Z,96110.66
2022-09-13T10:49:48.379Z,96112.41
2022-09-13T10:52:35.614Z,96114.50
2022-09-13T10:55:29.038Z,96111.09
2022-09-13T10:58:15.553Z,96111.22
2022-09-13T11:00:56.013Z,96112.81
2022-09-13T11:03:34.963Z,96103.03
2022-09-13T11:06:13.328Z,96102.44
2022-09-13T11:08:56.427Z,96094.88
2022-09-13T11:11:33.247Z,96087.34
2022-09-13T11:14:17.201Z,96089.72
2022-09-13T11:16:55.614Z,96094.97
2022-09-13T11:19:57.176Z,96087.56
2022-09-13T11:22:39.528Z,96090.72
2022-09-13T11:25:23.123Z,96085.84
2022-09-13T11:28:02.271Z,96097.31
2022-09-13T11:30:37.014Z,96097.28
2022-09-13T11:33:23.011Z,96093.34
2022-09-13T11:36:05.481Z,96088.84
2022-09-13T11:38:42.454Z,96094.16
2022-09-13T11:41:28.823Z,96089.28
2022-09-13T11:44:17.237Z,96093.75
2022-09-13T11:46:55.217Z,96087.50
2022-09-13T11:49:52.946Z,96098.81
2022-09-13T11:52:34.483Z,96084.25
2022-09-13T11:55:14.242Z,96091.16
2022-09-13T11:57:48.843Z,96084.91
2022-09-13T12:00:23.130Z,96087.22
2022-09-13T12:03:01.663Z,96081.53
2022-09-13T12:05:34.871Z,96083.69
2022-09-13T12:08:11.906Z,96084.41
2022-09-13T12:10:50.177Z,96081.81
2022-09-13T12:13:23.737Z,96077.34
2022-09-13T12:15:55.862Z,96071.84
2022-09-13T12:18:30.195Z,96060.63
2022-09-13T12:21:07.344Z,96071.84
2022-09-13T12:23:39.111Z,96073.78
2022-09-13T12:26:14.262Z,96073.13
2022-09-13T12:28:47.873Z,96066.13
2022-09-13T12:31:19.885Z,96069.03
2022-09-13T12:33:50.551Z,96057.13
2022-09-13T12:36:34.047Z,96055.63
2022-09-13T12:39:32.230Z,96038.41
2022-09-13T12:42:38.357Z,96038.56
2022-09-13T12:45:23.620Z,96042.22
2022-09-13T12:48:11.907Z,96032.84
2022-09-13T12:50:50.716Z,96032.09
2022-09-13T12:53:45.482Z,96031.44
2022-09-13T12:56:34.133Z,96022.72
2022-09-13T12:59:17.325Z,96031.03
2022-09-13T13:01:48.393Z,96022.16
2022-09-13T13:04:21.399Z,96029.88
2022-09-13T13:06:55.182Z,96027.53
2022-09-13T13:09:29.514Z,96028.59
2022-09-13T13:11:59.737Z,96034.22
2022-09-13T13:14:46.629Z,96035.41
2022-09-13T13:17:44.646Z,96029.44
2022-09-13T13:20:42.442Z,96044.84
2022-09-13T13:23:27.695Z,96029.94
2022-09-13T13:26:00.849Z,96042.63
2022-09-13T13:28:53.281Z,96046.75
2022-09-13T13:31:37.316Z,96046.31
2022-09-13T13:34:28.367Z,96058.88
2022-09-13T13:37:02.041Z,96052.13
2022-09-13T13:39:37.635Z,96056.16
2022-09-13T13:42:20.530Z,96047.81
2022-09-13T13:45:07.999Z,96046.22
2022-09-13T13:47:55.983Z,96031.84
2022-09-13T13:50:24.337Z,96030.16
2022-09-13T13:52:56.707Z,96040.66
2022-09-13T13:55:47.106Z,96032.19
2022-09-13T13:58:38.875Z,96038.25
2022-09-13T14:01:07.818Z,96038.94
2022-09-13T14:03:53.313Z,96041.13
2022-09-13T14:06:30.832Z,96044.03
2022-09-13T14:09:09.562Z,96035.59
2022-09-13T14:11:49.331Z,96036.38
2022-09-13T14:14:33.771Z,96019.28
2022-09-13T14:17:31.858Z,96024.34
2022-09-13T14:20:05.037Z,96009.53
2022-09-13T14:22:33.454Z,96003.44
2022-09-13T14:25:16.235Z,96009.84
2022-09-13T14:27:47.142Z,96000.19
2022-09-13T14:30:22.010Z,96005.53
2022-09-13T14:32:53.496Z,96002.88
2022-09-13T14:35:31.769Z,96007.97
2022-09-13T14:38:13.865Z,95998.03
2022-09-13T14:40:42.231Z,96000.38
2022-09-13T14:43:20.752Z,96002.00
2022-09-13T14:45:53.648Z,96004.31
2022-09-13T14:48:30.221Z,95998.56
2022-09-13T14:51:02.203Z,95993.47
2022-09-13T14:53:33.904Z,95993.25
2022-09-13T14:56:07.705Z,95990.16
2022-09-13T14:58:45.279Z,95988.66
2022-09-13T15:01:17.151Z,95986.38
2022-09-13T15:03:46.910Z,95970.69
2022-09-13T15:06:25.039Z,95962.59
2022-09-13T15:09:01.871Z,95963.53
2022-09-13T15:11:33.602Z,95965.25
2022-09-13T15:14:24.145Z,95962.13
2022-09-13T15:16:59.251Z,95962.13
2022-09-13T15:19:37.190Z,95953.34
2022-09-13T15:22:12.194Z,95966.50
2022-09-13T15:24:46.307Z,95956.22
2022-09-13T15:27:27.427Z,95952.16
2022-09-13T15:29:58.581Z,95943.06
2022-09-13T15:32:33.638Z,95953.28
2022-09-13T15:35:03.171Z,95945.59
2022-09-13T15:37:36.472Z,95945.75
2022-09-13T15:40:16.039Z,95938.81
2022-09-13T15:42:50.233Z,95931.88
2022-09-13T15:45:21.490Z,95935.66
2022-09-13T15:47:52.801Z,95936.75
2022-09-13T15:50:26.976Z,95928.66
2022-09-13T15:52:56.264Z,95925.09
2022-09-13T15:55:25.163Z,95919.19
2022-09-13T15:57:53.934Z,95930.34
2022-09-13T16:00:27.255Z,95913.22
2022-09-13T16:02:55.866Z,95913.78
2022-09-13T16:05:24.687Z,95910.63
2022-09-13T16:07:54.069Z,95909.75
2022-09-13T16:10:23.685Z,95909.28
2022-09-13T16:12:53.292Z,95902.94
2022-09-13T16:15:21.914Z,95899.91
2022-09-13T16:17:52.071Z,95896.06
2022-09-13T16:20:21.424Z,95906.03
2022-09-13T16:22:50.360Z,95912.22
2022-09-13T16:25:19.515Z,95909.00
2022-09-13T16:27:48.202Z,95912.09
2022-09-13T16:30:19.998Z,95906.56
2022-09-13T16:32:48.306Z,95914.41
2022-09-13T16:35:18.763Z,95922.41
2022-09-13T16:37:51.351Z,95923.72
2022-09-13T16:40:20.054Z,95915.59
2022-09-13T16:42:48.872Z,95911.22
2022-09-13T16:45:17.288Z,95905.53
2022-09-13T16:47:46.004Z,95910.84
2022-09-13T16:50:14.863Z,95896.91
2022-09-13T16:52:44.834Z,95905.75
2022-09-13T16:55:13.205Z,95908.34
2022-09-13T16:57:41.902Z,95915.00
2022-09-13T17:00:12.735Z,95916.28
2022-09-13T17:02:41.141Z,95909.97
2022-09-13T17:05:11.167Z,95911.09
2022-09-13T17:07:40.246Z,95903.97
2022-09-13T17:10:12.987Z,95900.25
2022-09-13T17:12:41.622Z,95898.16
2022-09-13T17:15:11.135Z,95900.44
2022-09-13T17:17:39.607Z,95893.94
2022-09-13T17:20:12.493Z,95893.47
2022-09-13T17:22:41.732Z,95895.78
2022-09-13T17:25:12.158Z,95895.78
2022-09-13T17:27:40.508Z,95892.84
2022-09-13T17:30:11.286Z,95891.72
2022-09-13T17:32:40.098Z,95902.59
2022-09-13T17:35:10.756Z,95897.44
2022-09-13T17:37:39.616Z,95892.38
2022-09-13T17:40:09.107Z,95891.91
2022-09-13T17:42:39.054Z,95893.06
2022-09-13T17:45:08.071Z,95896.94
2022-09-13T17:47:36.898Z,95899.72
2022-09-13T17:50:05.631Z,95891.78
2022-09-13T17:52:35.178Z,95903.00
2022-09-13T17:55:03.819Z,95903.00
2022-09-13T17:57:33.029Z,95898.78
2022-09-13T18:00:04.119Z,95896.50
2022-09-13T18:02:32.798Z,95903.50
2022-09-13T18:05:05.744Z,95905.94
2022-09-13T18:07:35.979Z,95909.19
2022-09-13T18:10:13.007Z,95905.94
2022-09-13T18:12:54.421Z,95886.81
2022-09-13T18:15:24.718Z,95881.44
2022-09-13T18:17:53.675Z,95884.06
2022-09-13T18:20:22.000Z,95896.50
2022-09-13T18:22:50.728Z,95888.72
2022-09-13T18:25:23.376Z,95898.13
2022-09-13T18:27:53.094Z,95892.78
2022-09-13T18:30:21.945Z,95886.97
2022-09-13T18:32:51.632Z,95893.44
2022-09-13T18:35:19.970Z,95899.41
2022-09-13T18:37:48.502Z,95895.84
2022-09-13T18:40:17.453Z,95892.81
2022-09-13T18:42:46.284Z,95881.94
2022-09-13T18:45:15.297Z,95888.06
2022-09-13T18:47:43.962Z,95880.13
2022-09-13T18:50:19.210Z,95884.38
2022-09-13T18:52:48.434Z,95885.50
2022-09-13T18:55:16.780Z,95881.44
2022-09-13T18:57:45.549Z,95880.16
2022-09-13T19:00:14.054Z,95887.94
2022-09-13T19:03:02.069Z,95884.69
2022-09-13T19:05:35.109Z,95887.59
2022-09-13T19:08:07.657Z,95885.66
2022-09-13T19:10:36.046Z,95888.69
2022-09-13T19:13:04.773Z,95895.34
2022-09-13T19:15:33.427Z,95898.09
2022-09-13T19:18:01.788Z,95894.22
2022-09-13T19:20:31.387Z,95890.63
2022-09-13T19:23:01.534Z,95888.22
2022-09-13T19:25:30.406Z,95878.31
2022-09-13T19:27:59.085Z,95879.13
2022-09-13T19:30:27.686Z,95875.06
2022-09-13T19:32:56.089Z,95876.53
2022-09-13T19:35:24.993Z,95877.34
2022-09-13T19:37:53.999Z,95880.41
2022-09-13T19:40:24.041Z,95870.88
2022-09-13T19:42:52.386Z,95866.75
2022-09-13T19:45:21.361Z,95865.47
2022-09-13T19:48:36.671Z,95870.31
2022-09-13T19:50:40.395Z,95877.28
2022-09-13T19:53:08.702Z,95863.50
2022-09-13T19:55:45.267Z,95871.25
2022-09-13T19:58:14.101Z,95858.47
2022-09-13T20:00:44.077Z,95849.53
2022-09-13T20:03:12.407Z,95863.28
2022-09-13T20:05:41.336Z,95860.88
2022-09-13T20:08:09.609Z,95868.94
2022-09-13T20:10:39.777Z,95860.81
2022-09-13T20:13:08.111Z,95868.09
2022-09-13T20:15:39.948Z,95860.97
2022-09-13T20:18:13.145Z,95869.84
2022-09-13T20:20:43.345Z,95863.53
2022-09-13T20:23:11.809Z,95858.47
2022-09-13T20:25:43.414Z,95849.41
2022-09-13T20:28:12.002Z,95847.41
2022-09-13T20:30:41.757Z,95844.78
2022-09-13T20:33:10.356Z,95839.13
2022-09-13T20:35:39.263Z,95838.59
2022-09-13T20:38:07.590Z,95837.63
2022-09-13T20:40:36.232Z,95836.00
2022-09-13T20:43:06.178Z,95839.88
2022-09-13T20:45:35.106Z,95839.88
2022-09-13T20:48:03.853Z,95842.09
2022-09-13T20:50:32.848Z,95838.06
2022-09-13T20:53:01.976Z,95841.44
2022-09-13T20:55:30.609Z,95838.00
2022-09-13T20:58:00.799Z,95848.19
2022-09-13T21:00:31.045Z,95840.56
2022-09-13T21:02:59.749Z,95843.16
2022-09-13T21:05:28.950Z,95846.00
2022-09-13T21:08:14.703Z,95855.69
2022-09-13T21:10:43.655Z,95852.16
2022-09-13T21:13:12.110Z,95851.94
2022-09-13T21:15:42.068Z,95843.69
2022-09-13T21:18:10.803Z,95842.09
2022-09-13T21:20:39.089Z,95836.09
2022-09-13T21:23:07.727Z,95844.66
2022-09-13T21:25:36.878Z,95843.81
2022-09-13T21:28:05.483Z,95845.91
2022-09-13T21:30:33.927Z,95852.44
2022-09-13T21:33:04.341Z,95849.53
2022-09-13T21:35:32.667Z,95843.72
2022-09-13T21:38:01.407Z,95843.53
2022-09-13T21:40:29.771Z,95839.13
2022-09-13T21:42:58.881Z,95828.47
2022-09-13T21:45:27.187Z,95826.97
2022-09-13T21:47:56.079Z,95825.19
2022-09-13T21:50:26.346Z,95837.28
2022-09-13T21:52:55.239Z,95835.47
2022-09-13T21:55:23.567Z,95829.75
2022-09-13T21:57:52.367Z,95833.31
2022-09-13T22:00:20.917Z,95850.88
2022-09-13T22:02:49.760Z,95836.06
2022-09-13T22:05:35.415Z,95834.72
2022-09-13T22:08:05.639Z,95827.94
2022-09-13T22:10:35.995Z,95845.00
2022-09-13T22:13:05.069Z,95845.00
2022-09-13T22:15:35.630Z,95833.03
2022-09-13T22:18:04.710Z,95832.41
2022-09-13T22:20:35.711Z,95837.03
2022-09-13T22:23:06.090Z,95835.41
2022-09-13T22:25:34.430Z,95833.78
2022-09-13T22:28:03.110Z,95840.06
2022-09-13T22:30:32.056Z,95840.06
2022-09-13T22:33:00.771Z,95845.25
2022-09-13T22:35:29.996Z,95838.63
2022-09-13T22:37:59.115Z,95832.16
2022-09-13T22:40:28.811Z,95826.66
2022-09-13T22:42:57.729Z,95839.88
2022-09-13T22:45:25.983Z,95835.50
2022-09-13T22:47:54.983Z,95837.94
2022-09-13T22:50:23.766Z,95832.75
2022-09-13T22:52:52.270Z,95804.69
2022-09-13T22:55:21.125Z,95828.00
2022-09-13T22:57:53.515Z,95826.50
2022-09-13T23:00:22.329Z,95826.50
2022-09-13T23:02:50.583Z,95832.28
2022-09-13T23:05:20.055Z,95826.63
2022-09-13T23:07:48.642Z,95834.31
2022-09-13T23:10:17.471Z,95833.72
2022-09-13T23:12:46.507Z,95821.94
2022-09-13T23:15:16.413Z,95813.50
2022-09-13T23:17:45.194Z,95800.53
2022-09-13T23:20:13.567Z,95780.75
2022-09-13T23:22:42.141Z,95778.28
2022-09-13T23:25:10.731Z,95771.69
2022-09-13T23:27:40.053Z,95772.69
2022-09-13T23:30:09.405Z,95769.97
2022-09-13T23:32:39.346Z,95776.25
2022-09-13T23:35:08.367Z,95778.50
2022-09-13T23:37:37.023Z,95782.06
2022-09-13T23:40:06.076Z,95788.53
2022-09-13T23:42:34.836Z,95781.94
2022-09-13T23:45:03.627Z,95774.81
2022-09-13T23:47:31.953Z,95774.63
2022-09-13T23:50:02.243Z,95774.63
2022-09-13T23:52:30.642Z,95755.94
2022-09-13T23:55:00.489Z,95755.22
2022-09-13T23:57:30.095Z,95739.72
2022-09-13T23:59:59.223Z,95741.22
